Time;durP1;ratioP1;P1;durP2;ratioP2;P2;SDS_P1;SDS_P2;PMS_P1;PMS_P2;Temp;Humidity;BMP_temperature;BMP_pressure;BME280_temperature;BME280_humidity;BME280_pressure;Samples;Min_cycle;Max_cycle;Signal;HPM_P1;HPM_P2
2021/10/16 00:01:22;;;;;;;25.27;4.03;;;;;;;;;;5033667;28;20080;-86
2021/10/16 00:03:50;;;;;;;27.42;3.05;;;;;;;;;;5033729;28;20129;-86
2021/10/16 00:06:17;;;;;;;32.20;3.22;;;;;;;;;;5030111;28;20554;-87
2021/10/16 00:08:44;;;;;;;25.88;3.03;;;;;;;;;;5025626;28;20487;-87
2021/10/16 00:11:12;;;;;;;29.30;3.70;;;;;;;;;;5026295;28;20054;-87
2021/10/16 00:13:41;;;;;;;24.27;2.70;;;;;;;;;;5029457;28;20144;-87
2021/10/16 00:16:09;;;;;;;31.70;3.70;;;;;;;;;;5045842;28;20049;-86
2021/10/16 00:18:36;;;;;;;24.02;2.40;;;;;;;;;;5040569;28;20059;-87
2021/10/16 00:21:04;;;;;;;26.52;4.13;;;;;;;;;;5031084;28;20087;-87
2021/10/16 00:23:31;;;;;;;23.83;3.00;;;;;;;;;;5022831;28;20076;-86
2021/10/16 00:25:59;;;;;;;32.38;3.45;;;;;;;;;;5025638;28;20107;-86
2021/10/16 00:28:26;;;;;;;22.95;4.18;;;;;;;;;;5028418;28;20095;-86
2021/10/16 00:30:53;;;;;;;30.40;3.63;;;;;;;;;;5025970;28;20053;-87
2021/10/16 00:33:20;;;;;;;24.58;5.40;;;;;;;;;;5029169;28;20045;-87
2021/10/16 00:35:47;;;;;;;20.88;2.67;;;;;;;;;;5030466;28;20053;-86
2021/10/16 00:38:14;;;;;;;32.88;4.30;;;;;;;;;;5029634;28;20045;-87
2021/10/16 00:40:42;;;;;;;32.00;3.65;;;;;;;;;;5030133;28;20100;-87
2021/10/16 00:43:09;;;;;;;28.20;2.67;;;;;;;;;;5029494;28;20136;-88
2021/10/16 00:45:36;;;;;;;42.30;3.45;;;;;;;;;;5032840;28;20128;-88
2021/10/16 00:48:17;;;;;;;36.22;3.55;;;;;;;;;;5039667;28;20051;-87
2021/10/16 00:50:44;;;;;;;28.35;4.43;;;;;;;;;;5049780;28;20099;-88
2021/10/16 00:53:12;;;;;;;29.35;3.97;;;;;;;;;;5032729;28;20052;-87
2021/10/16 00:55:41;;;;;;;26.13;3.55;;;;;;;;;;5021201;28;20132;-86
2021/10/16 00:58:09;;;;;;;23.52;2.95;;;;;;;;;;5034216;28;20489;-86
2021/10/16 01:00:37;;;;;;;33.08;3.22;;;;;;;;;;5028987;28;20065;-87
2021/10/16 01:03:04;;;;;;;25.33;2.60;;;;;;;;;;5012354;28;20050;-86
2021/10/16 01:05:33;;;;;;;24.05;3.53;;;;;;;;;;5027553;28;20056;-87
2021/10/16 01:08:04;;;;;;;22.63;2.65;;;;;;;;;;5026415;28;20054;-86
2021/10/16 01:10:31;;;;;;;17.50;2.65;;;;;;;;;;5033878;28;20140;-86
2021/10/16 01:12:59;;;;;;;45.78;7.15;;;;;;;;;;5029499;28;20077;-86
2021/10/16 01:15:31;;;;;;;21.85;4.03;;;;;;;;;;5032648;28;20053;-86
2021/10/16 01:17:58;;;;;;;32.03;2.92;;;;;;;;;;5033113;28;20088;-87
2021/10/16 01:20:25;;;;;;;22.75;3.03;;;;;;;;;;5032991;28;20076;-87
2021/10/16 01:22:53;;;;;;;23.27;2.72;;;;;;;;;;5033160;28;20081;-87
2021/10/16 01:25:21;;;;;;;21.33;2.85;;;;;;;;;;5031838;28;20053;-87
2021/10/16 01:27:49;;;;;;;28.75;3.17;;;;;;;;;;5040153;28;20061;-88
2021/10/16 01:30:18;;;;;;;27.92;2.70;;;;;;;;;;5047800;28;20188;-87
2021/10/16 01:32:45;;;;;;;33.63;3.50;;;;;;;;;;5041707;28;20050;-86
2021/10/16 01:35:13;;;;;;;24.45;2.28;;;;;;;;;;5046394;28;20053;-87
2021/10/16 01:37:41;;;;;;;22.52;3.22;;;;;;;;;;5032692;28;20131;-86
2021/10/16 01:40:09;;;;;;;28.67;2.95;;;;;;;;;;5032189;28;20453;-86
2021/10/16 01:42:41;;;;;;;25.08;5.03;;;;;;;;;;5031970;28;20049;-86
2021/10/16 01:45:10;;;;;;;24.38;3.50;;;;;;;;;;5043275;28;20149;-87
2021/10/16 01:47:47;;;;;;;25.48;2.78;;;;;;;;;;5015555;28;20077;-87
2021/10/16 01:52:51;;;;;;;39.45;3.08;;;;;;;;;;4971951;28;20074;-86
2021/10/16 01:55:18;;;;;;;27.63;2.90;;;;;;;;;;4969977;28;20043;-86
2021/10/16 01:57:47;;;;;;;37.42;4.65;;;;;;;;;;4994268;28;20055;-86
2021/10/16 02:00:15;;;;;;;29.77;3.22;;;;;;;;;;4999196;28;20136;-86
2021/10/16 02:02:42;;;;;;;28.50;2.90;;;;;;;;;;4980539;28;20645;-86
2021/10/16 02:05:09;;;;;;;25.02;2.95;;;;;;;;;;4982890;28;20541;-86
2021/10/16 02:07:36;;;;;;;22.35;3.33;;;;;;;;;;4978022;28;20157;-86
2021/10/16 02:10:04;;;;;;;17.70;3.15;;;;;;;;;;4983410;28;20050;-87
2021/10/16 02:12:31;;;;;;;19.42;2.38;;;;;;;;;;4997477;28;20038;-86
2021/10/16 02:14:58;;;;;;;38.10;3.50;;;;;;;;;;4978460;28;20059;-87
2021/10/16 02:17:25;;;;;;;38.08;3.88;;;;;;;;;;4973210;28;20851;-86
2021/10/16 02:19:52;;;;;;;30.75;2.80;;;;;;;;;;4978609;28;20074;-86
2021/10/16 02:22:19;;;;;;;26.98;4.63;;;;;;;;;;4992302;28;20488;-86
2021/10/16 02:24:47;;;;;;;27.20;4.25;;;;;;;;;;4972538;28;20141;-86
2021/10/16 02:27:14;;;;;;;27.80;2.60;;;;;;;;;;4969314;28;20043;-87
2021/10/16 02:29:41;;;;;;;30.20;3.40;;;;;;;;;;4995912;28;20100;-87
2021/10/16 02:32:09;;;;;;;20.33;2.10;;;;;;;;;;4968621;28;20142;-85
2021/10/16 02:34:36;;;;;;;28.73;2.83;;;;;;;;;;4988167;28;20074;-87
2021/10/16 02:37:03;;;;;;;27.67;2.80;;;;;;;;;;4984600;28;20129;-86
2021/10/16 02:39:31;;;;;;;23.52;2.72;;;;;;;;;;4984573;28;20059;-86
2021/10/16 02:41:59;;;;;;;15.65;2.30;;;;;;;;;;4979232;28;20050;-87
2021/10/16 02:44:29;;;;;;;18.27;2.70;;;;;;;;;;4991190;28;20085;-86
2021/10/16 02:46:56;;;;;;;31.65;2.85;;;;;;;;;;4972994;28;20082;-86
2021/10/16 02:49:23;;;;;;;21.92;3.10;;;;;;;;;;4988938;28;20055;-89
2021/10/16 02:51:50;;;;;;;19.35;3.60;;;;;;;;;;4989872;28;20077;-89
2021/10/16 02:54:18;;;;;;;29.65;2.63;;;;;;;;;;4973121;28;20055;-89
2021/10/16 02:56:45;;;;;;;29.70;4.80;;;;;;;;;;4988213;28;20130;-89
2021/10/16 02:59:14;;;;;;;17.95;2.65;;;;;;;;;;4989824;28;20050;-90
2021/10/16 03:01:41;;;;;;;30.33;3.00;;;;;;;;;;4988280;28;20055;-90
2021/10/16 03:04:08;;;;;;;29.17;2.70;;;;;;;;;;4988222;28;20058;-90
2021/10/16 03:06:35;;;;;;;32.45;3.15;;;;;;;;;;4987938;28;20071;-89
2021/10/16 03:09:03;;;;;;;39.20;4.65;;;;;;;;;;4977580;28;20050;-88
2021/10/16 03:11:30;;;;;;;20.77;2.55;;;;;;;;;;4989234;28;20078;-89
2021/10/16 03:14:01;;;;;;;24.02;2.97;;;;;;;;;;4979553;28;20728;-88
2021/10/16 03:16:28;;;;;;;22.70;3.00;;;;;;;;;;4993329;28;20129;-88
2021/10/16 03:18:55;;;;;;;15.73;3.13;;;;;;;;;;4974576;28;20070;-89
2021/10/16 03:21:22;;;;;;;16.17;2.42;;;;;;;;;;4977320;28;20170;-89
2021/10/16 03:23:50;;;;;;;20.25;2.53;;;;;;;;;;4984800;28;20082;-90
2021/10/16 03:26:17;;;;;;;25.27;2.47;;;;;;;;;;4985561;28;20059;-89
2021/10/16 03:28:44;;;;;;;28.25;3.17;;;;;;;;;;4990905;28;20046;-89
2021/10/16 03:31:11;;;;;;;16.73;2.50;;;;;;;;;;4985530;28;20050;-88
2021/10/16 03:33:38;;;;;;;20.58;3.10;;;;;;;;;;4980965;28;20065;-89
2021/10/16 03:36:06;;;;;;;20.90;2.92;;;;;;;;;;4969573;28;20082;-89
2021/10/16 03:38:33;;;;;;;23.98;3.42;;;;;;;;;;4987811;28;20086;-88
2021/10/16 03:41:00;;;;;;;19.92;2.55;;;;;;;;;;4981811;28;20052;-89
2021/10/16 03:43:27;;;;;;;21.02;3.20;;;;;;;;;;4969979;28;20129;-89
2021/10/16 03:45:54;;;;;;;14.70;2.72;;;;;;;;;;4971784;28;20078;-88
2021/10/16 03:48:21;;;;;;;18.17;2.50;;;;;;;;;;4986795;28;20047;-89
2021/10/16 03:50:49;;;;;;;19.48;2.45;;;;;;;;;;4970416;28;20085;-88
2021/10/16 03:53:16;;;;;;;22.05;2.88;;;;;;;;;;4983346;28;20133;-88
2021/10/16 03:55:44;;;;;;;15.38;2.50;;;;;;;;;;4970745;28;20571;-87
2021/10/16 03:58:12;;;;;;;23.05;5.35;;;;;;;;;;4982451;28;20074;-87
2021/10/16 04:00:40;;;;;;;32.85;4.10;;;;;;;;;;4965114;28;20580;-88
2021/10/16 04:03:08;;;;;;;21.23;2.72;;;;;;;;;;4979923;28;20059;-88
2021/10/16 04:05:35;;;;;;;32.05;3.20;;;;;;;;;;4964223;28;20058;-88
2021/10/16 04:08:05;;;;;;;23.05;2.53;;;;;;;;;;4971683;28;20113;-88
2021/10/16 04:10:32;;;;;;;25.80;3.08;;;;;;;;;;4989977;28;20511;-89
2021/10/16 04:13:01;;;;;;;25.95;2.80;;;;;;;;;;4985137;28;20116;-89
2021/10/16 04:15:29;;;;;;;17.15;3.25;;;;;;;;;;4986467;28;20047;-90
2021/10/16 04:17:56;;;;;;;32.03;4.35;;;;;;;;;;4972248;28;20074;-90
2021/10/16 04:20:23;;;;;;;27.42;3.10;;;;;;;;;;4972089;28;20079;-90
2021/10/16 04:22:50;;;;;;;17.88;2.00;;;;;;;;;;4970539;28;20078;-89
2021/10/16 04:25:17;;;;;;;14.68;2.50;;;;;;;;;;4987516;28;20129;-90
2021/10/16 04:27:45;;;;;;;20.77;2.42;;;;;;;;;;4983916;28;20338;-89
2021/10/16 04:30:14;;;;;;;24.48;2.40;;;;;;;;;;4991626;28;20841;-90
2021/10/16 04:32:41;;;;;;;22.67;3.08;;;;;;;;;;5006817;28;20121;-91
2021/10/16 04:35:09;;;;;;;26.63;2.70;;;;;;;;;;4982556;28;20137;-91
2021/10/16 04:37:37;;;;;;;22.80;2.22;;;;;;;;;;4987606;28;20050;-91
2021/10/16 04:40:25;;;;;;;25.60;2.85;;;;;;;;;;4987876;28;20058;-92
2021/10/16 04:42:56;;;;;;;33.72;2.97;;;;;;;;;;4993404;28;20839;-93
2021/10/16 04:45:23;;;;;;;18.98;2.83;;;;;;;;;;4984898;28;20051;-92
2021/10/16 04:48:09;;;;;;;14.80;2.53;;;;;;;;;;4981722;28;20048;-92
2021/10/16 04:50:36;;;;;;;12.25;2.45;;;;;;;;;;4978631;28;20115;-93
2021/10/16 04:53:03;;;;;;;23.75;2.97;;;;;;;;;;4991504;28;20078;-91
2021/10/16 04:55:31;;;;;;;23.08;2.67;;;;;;;;;;4991332;28;20054;-92
2021/10/16 04:58:03;;;;;;;27.70;3.28;;;;;;;;;;4977427;28;20049;-93
2021/10/16 05:00:31;;;;;;;27.55;3.22;;;;;;;;;;4986299;28;20054;-91
2021/10/16 05:02:58;;;;;;;27.08;2.65;;;;;;;;;;4981382;28;20102;-91
2021/10/16 05:05:27;;;;;;;15.25;3.08;;;;;;;;;;4990625;28;20050;-91
2021/10/16 05:07:55;;;;;;;27.92;2.92;;;;;;;;;;4981531;28;20075;-92
2021/10/16 05:10:22;;;;;;;25.52;4.13;;;;;;;;;;4996165;28;20046;-92
2021/10/16 05:12:50;;;;;;;20.40;2.50;;;;;;;;;;4989626;28;20035;-91
2021/10/16 05:18:47;;;;;;;24.83;3.08;;;;;;;;;;4969512;28;20050;-93
2021/10/16 05:21:14;;;;;;;36.28;3.25;;;;;;;;;;4975929;28;20153;-92
2021/10/16 05:23:54;;;;;;;18.40;3.35;;;;;;;;;;4991754;28;20543;-93
2021/10/16 05:26:21;;;;;;;28.98;3.70;;;;;;;;;;4991772;28;20765;-92
2021/10/16 05:28:55;;;;;;;24.08;3.28;;;;;;;;;;4992940;28;20085;-94
2021/10/16 05:31:32;;;;;;;29.30;3.65;;;;;;;;;;4981246;28;20058;-93
2021/10/16 05:34:07;;;;;;;28.05;3.25;;;;;;;;;;4991737;28;20047;-95
2021/10/16 05:36:34;;;;;;;;;;;;;;;;;;4991893;28;20051;-93
2021/10/16 05:39:01;;;;;;;29.23;3.60;;;;;;;;;;4990655;28;19933;-93
2021/10/16 05:41:29;;;;;;;16.08;3.50;;;;;;;;;;4991962;28;20506;-92
2021/10/16 05:43:57;;;;;;;18.73;3.90;;;;;;;;;;4985836;28;20507;-91
2021/10/16 05:46:24;;;;;;;19.60;2.90;;;;;;;;;;4990154;28;20500;-92
2021/10/16 05:48:51;;;;;;;18.75;2.42;;;;;;;;;;4996930;28;20053;-91
2021/10/16 05:51:19;;;;;;;22.95;3.58;;;;;;;;;;4990042;28;20047;-92
2021/10/16 05:53:46;;;;;;;33.17;3.42;;;;;;;;;;4981403;28;20139;-91
2021/10/16 05:56:13;;;;;;;13.65;3.42;;;;;;;;;;4977099;28;20055;-92
2021/10/16 05:58:40;;;;;;;29.25;3.38;;;;;;;;;;4990692;28;20058;-90
2021/10/16 06:01:10;;;;;;;19.85;2.50;;;;;;;;;;4995358;28;20054;-91
2021/10/16 06:03:37;;;;;;;22.25;3.95;;;;;;;;;;4988753;28;20162;-90
2021/10/16 06:06:04;;;;;;;22.15;3.33;;;;;;;;;;4990442;28;20074;-93
2021/10/16 06:08:31;;;;;;;37.53;3.90;;;;;;;;;;4990766;28;20074;-94
2021/10/16 06:10:58;;;;;;;23.20;3.00;;;;;;;;;;5001550;28;20051;-89
2021/10/16 06:13:26;;;;;;;23.92;3.35;;;;;;;;;;5004773;28;20023;-90
2021/10/16 06:15:53;;;;;;;18.98;3.75;;;;;;;;;;4999384;28;20381;-88
2021/10/16 06:18:24;;;;;;;23.65;4.07;;;;;;;;;;4981567;28;20046;-90
2021/10/16 06:20:51;;;;;;;25.88;3.10;;;;;;;;;;4993808;28;20082;-88
2021/10/16 06:23:18;;;;;;;27.77;4.03;;;;;;;;;;5005741;28;20082;-88
2021/10/16 06:25:45;;;;;;;22.60;3.50;;;;;;;;;;4995754;28;20057;-88
2021/10/16 06:28:14;;;;;;;29.83;4.53;;;;;;;;;;4992647;28;20767;-88
2021/10/16 06:30:42;;;;;;;17.98;3.47;;;;;;;;;;5000165;28;20152;-88
2021/10/16 06:33:13;;;;;;;25.25;3.20;;;;;;;;;;4974990;28;20523;-89
2021/10/16 06:35:44;;;;;;;24.58;3.58;;;;;;;;;;4989132;28;20460;-89
2021/10/16 06:38:11;;;;;;;18.02;3.28;;;;;;;;;;4988768;28;20057;-89
2021/10/16 06:40:38;;;;;;;12.35;2.92;;;;;;;;;;4996712;28;20062;-90
2021/10/16 06:43:05;;;;;;;25.20;3.50;;;;;;;;;;4976168;28;20055;-89
2021/10/16 06:45:36;;;;;;;24.58;3.97;;;;;;;;;;4989098;28;20472;-90
2021/10/16 06:48:06;;;;;;;20.75;3.20;;;;;;;;;;4988882;28;20129;-88
2021/10/16 06:50:33;;;;;;;25.95;3.75;;;;;;;;;;4992201;28;20096;-84
2021/10/16 06:53:02;;;;;;;30.05;3.55;;;;;;;;;;4992831;28;20086;-83
2021/10/16 06:55:29;;;;;;;24.58;3.47;;;;;;;;;;4972243;28;20081;-84
2021/10/16 06:57:57;;;;;;;23.80;3.33;;;;;;;;;;4973177;28;20086;-84
2021/10/16 07:00:24;;;;;;;17.33;2.97;;;;;;;;;;4990887;28;20062;-85
2021/10/16 07:02:52;;;;;;;17.48;3.33;;;;;;;;;;4993657;28;20054;-86
2021/10/16 07:05:19;;;;;;;15.00;3.00;;;;;;;;;;4972000;28;20055;-84
2021/10/16 07:07:46;;;;;;;17.95;3.58;;;;;;;;;;4965304;28;20093;-84
2021/10/16 07:10:16;;;;;;;17.00;2.92;;;;;;;;;;4995268;28;20074;-87
2021/10/16 07:12:46;;;;;;;22.92;3.60;;;;;;;;;;4996300;28;20042;-85
2021/10/16 07:15:27;;;;;;;30.23;3.70;;;;;;;;;;4972223;28;20145;-86
2021/10/16 07:17:54;;;;;;;23.15;4.28;;;;;;;;;;4980542;28;20515;-85
2021/10/16 07:20:21;;;;;;;24.27;3.60;;;;;;;;;;4994842;28;20141;-86
2021/10/16 07:22:48;;;;;;;17.10;3.55;;;;;;;;;;4972900;28;20082;-85
2021/10/16 07:25:15;;;;;;;16.58;3.28;;;;;;;;;;4967093;28;20504;-86
2021/10/16 07:27:43;;;;;;;15.30;3.80;;;;;;;;;;4970120;28;20079;-85
2021/10/16 07:30:12;;;;;;;21.65;4.57;;;;;;;;;;4974738;28;20520;-86
2021/10/16 07:32:45;;;;;;;17.65;3.70;;;;;;;;;;4973023;28;20133;-93
2021/10/16 07:35:13;;;;;;;22.55;4.00;;;;;;;;;;4970351;28;20058;-92
2021/10/16 07:37:41;;;;;;;21.73;3.38;;;;;;;;;;4986953;28;20090;-93
2021/10/16 07:40:09;;;;;;;20.02;3.33;;;;;;;;;;4983887;28;20059;-93
2021/10/16 07:42:36;;;;;;;22.67;3.50;;;;;;;;;;4996223;28;20110;-94
2021/10/16 07:45:07;;;;;;;32.22;3.92;;;;;;;;;;4987693;28;20445;-91
2021/10/16 07:47:37;;;;;;;17.55;3.03;;;;;;;;;;4988081;28;20071;-86
2021/10/16 07:50:05;;;;;;;14.25;3.40;;;;;;;;;;4984130;28;20071;-89
2021/10/16 07:52:34;;;;;;;19.73;2.83;;;;;;;;;;4982664;28;20043;-81
2021/10/16 07:55:04;;;;;;;20.42;3.42;;;;;;;;;;4970253;28;20074;-86
2021/10/16 07:57:32;;;;;;;21.67;3.20;;;;;;;;;;4981069;28;20070;-87
2021/10/16 08:00:01;;;;;;;19.77;3.40;;;;;;;;;;4973701;28;20742;-85
2021/10/16 08:02:28;;;;;;;13.82;2.83;;;;;;;;;;4978744;28;20085;-88
2021/10/16 08:04:58;;;;;;;24.75;4.80;;;;;;;;;;4991805;28;20408;-87
2021/10/16 08:07:26;;;;;;;14.13;3.20;;;;;;;;;;4988030;28;20101;-87
2021/10/16 08:09:54;;;;;;;16.02;3.17;;;;;;;;;;4988896;28;20042;-89
2021/10/16 08:12:24;;;;;;;20.30;2.90;;;;;;;;;;4998258;28;20051;-87
2021/10/16 08:14:51;;;;;;;16.60;2.72;;;;;;;;;;4972264;28;20121;-88
2021/10/16 08:17:19;;;;;;;14.95;2.63;;;;;;;;;;4986191;28;20531;-87
2021/10/16 08:19:49;;;;;;;11.63;2.50;;;;;;;;;;4986671;28;20059;-86
2021/10/16 08:22:16;;;;;;;19.88;2.58;;;;;;;;;;4990221;28;20559;-87
2021/10/16 08:24:43;;;;;;;7.85;2.53;;;;;;;;;;4970504;28;20101;-90
2021/10/16 08:27:10;;;;;;;16.25;2.80;;;;;;;;;;5007223;28;20082;-85
2021/10/16 08:29:42;;;;;;;11.98;2.80;;;;;;;;;;4993931;28;20105;-86
2021/10/16 08:32:09;;;;;;;17.38;2.80;;;;;;;;;;4980475;28;20098;-87
2021/10/16 08:34:36;;;;;;;15.10;2.72;;;;;;;;;;4971495;28;20047;-85
2021/10/16 08:37:04;;;;;;;19.17;3.22;;;;;;;;;;4989547;28;20078;-85
2021/10/16 08:39:31;;;;;;;19.00;4.18;;;;;;;;;;4979357;28;20050;-85
2021/10/16 08:41:58;;;;;;;13.57;2.83;;;;;;;;;;4975083;28;20549;-87
2021/10/16 08:44:26;;;;;;;16.98;2.72;;;;;;;;;;4984021;28;20129;-87
2021/10/16 08:46:55;;;;;;;17.95;2.72;;;;;;;;;;4967953;28;20075;-86
2021/10/16 08:49:24;;;;;;;11.68;3.65;;;;;;;;;;4986863;28;20074;-87
2021/10/16 08:51:51;;;;;;;9.05;2.25;;;;;;;;;;4979067;28;20105;-87
2021/10/16 08:54:20;;;;;;;14.77;2.47;;;;;;;;;;4975606;28;20058;-86
2021/10/16 08:56:48;;;;;;;14.43;2.90;;;;;;;;;;4992823;28;20046;-86
2021/10/16 08:59:16;;;;;;;14.55;2.10;;;;;;;;;;4973247;28;20077;-86
2021/10/16 09:01:58;;;;;;;12.52;2.28;;;;;;;;;;5000280;28;20137;-83
2021/10/16 09:04:28;;;;;;;13.15;2.78;;;;;;;;;;4973649;28;20058;-86
2021/10/16 09:06:56;;;;;;;13.85;3.42;;;;;;;;;;4973845;28;20066;-83
2021/10/16 09:09:27;;;;;;;21.15;3.03;;;;;;;;;;4991813;28;20047;-87
2021/10/16 09:11:55;;;;;;;20.00;3.20;;;;;;;;;;4981641;28;20042;-88
2021/10/16 09:14:26;;;;;;;8.75;2.60;;;;;;;;;;4995745;28;20051;-85
2021/10/16 09:16:57;;;;;;;16.02;2.30;;;;;;;;;;4976687;28;20496;-87
2021/10/16 09:19:29;;;;;;;16.70;2.70;;;;;;;;;;4975766;28;20492;-85
2021/10/16 09:21:58;;;;;;;10.70;2.45;;;;;;;;;;4990424;28;20109;-85
2021/10/16 09:24:28;;;;;;;19.17;3.53;;;;;;;;;;5001176;28;20114;-91
2021/10/16 09:26:57;;;;;;;10.98;2.70;;;;;;;;;;4987796;28;20137;-85
2021/10/16 09:29:28;;;;;;;12.23;2.45;;;;;;;;;;5000491;28;20046;-87
2021/10/16 09:32:04;;;;;;;7.57;2.58;;;;;;;;;;4981421;28;20043;-86
2021/10/16 09:34:33;;;;;;;10.60;2.80;;;;;;;;;;4979970;28;20134;-90
2021/10/16 09:37:02;;;;;;;11.23;2.80;;;;;;;;;;4999972;28;20082;-90
2021/10/16 09:39:29;;;;;;;12.23;3.10;;;;;;;;;;5004102;28;20046;-88
2021/10/16 09:42:07;;;;;;;15.57;2.05;;;;;;;;;;4995111;28;20050;-90
2021/10/16 09:44:36;;;;;;;12.02;2.92;;;;;;;;;;4996487;28;20086;-87
2021/10/16 09:47:06;;;;;;;11.20;2.20;;;;;;;;;;4994204;28;20141;-92
2021/10/16 09:50:09;;;;;;;9.07;2.75;;;;;;;;;;5000719;28;20043;-88
2021/10/16 09:52:38;;;;;;;12.57;2.40;;;;;;;;;;5001480;28;20102;-89
2021/10/16 09:55:07;;;;;;;14.13;3.22;;;;;;;;;;4992831;28;20089;-90
2021/10/16 09:57:37;;;;;;;13.27;2.80;;;;;;;;;;4975324;28;20468;-89
2021/10/16 10:00:05;;;;;;;8.07;2.25;;;;;;;;;;4979462;28;20138;-85
2021/10/16 10:02:34;;;;;;;9.82;2.17;;;;;;;;;;4981295;28;20078;-87
2021/10/16 10:05:03;;;;;;;10.70;1.75;;;;;;;;;;4976968;28;20074;-90
2021/10/16 10:07:32;;;;;;;8.60;1.92;;;;;;;;;;4972629;28;20133;-85
2021/10/16 10:10:00;;;;;;;11.75;2.30;;;;;;;;;;4977493;28;20089;-86
2021/10/16 10:12:28;;;;;;;12.63;2.10;;;;;;;;;;4991582;28;20086;-86
2021/10/16 10:14:56;;;;;;;13.25;2.03;;;;;;;;;;4980947;28;20834;-86
2021/10/16 10:17:24;;;;;;;16.70;2.00;;;;;;;;;;4975464;28;20130;-86
2021/10/16 10:19:56;;;;;;;14.27;1.80;;;;;;;;;;4976074;28;20050;-85
2021/10/16 10:22:23;;;;;;;6.90;2.05;;;;;;;;;;4983738;28;20116;-86
2021/10/16 10:24:58;;;;;;;9.85;2.25;;;;;;;;;;4981930;28;20457;-86
2021/10/16 10:27:26;;;;;;;7.30;1.73;;;;;;;;;;4976798;28;20727;-82
2021/10/16 10:29:54;;;;;;;6.30;1.48;;;;;;;;;;4970332;28;20586;-82
2021/10/16 10:32:28;;;;;;;8.85;2.00;;;;;;;;;;4976725;28;20130;-81
2021/10/16 10:34:59;;;;;;;5.70;1.65;;;;;;;;;;4985515;28;20086;-80
2021/10/16 10:37:41;;;;;;;12.07;2.70;;;;;;;;;;4986557;28;20129;-80
2021/10/16 10:40:14;;;;;;;11.77;2.13;;;;;;;;;;4973115;28;20086;-78
2021/10/16 10:42:46;;;;;;;5.57;1.77;;;;;;;;;;4989365;28;20054;-79
2021/10/16 10:45:26;;;;;;;10.23;2.28;;;;;;;;;;4961863;28;20109;-85
2021/10/16 10:47:58;;;;;;;11.45;2.42;;;;;;;;;;4984864;28;20452;-81
2021/10/16 10:50:44;;;;;;;5.63;1.73;;;;;;;;;;4978043;28;20141;-81
2021/10/16 10:53:12;;;;;;;11.93;2.08;;;;;;;;;;4992232;28;20100;-81
2021/10/16 10:55:53;;;;;;;11.38;2.35;;;;;;;;;;4978285;28;20400;-81
2021/10/16 10:58:20;;;;;;;6.55;2.13;;;;;;;;;;4973947;28;20468;-81
2021/10/16 11:00:48;;;;;;;6.65;1.67;;;;;;;;;;4999904;28;20651;-81
2021/10/16 11:03:40;;;;;;;6.25;2.38;;;;;;;;;;4992371;28;20092;-81
2021/10/16 11:06:11;;;;;;;6.22;1.63;;;;;;;;;;4975917;28;20142;-80
2021/10/16 11:08:38;;;;;;;9.65;2.08;;;;;;;;;;4974297;28;20100;-81
2021/10/16 11:11:08;;;;;;;11.77;1.58;;;;;;;;;;4985712;28;20490;-80
2021/10/16 11:13:36;;;;;;;6.45;1.52;;;;;;;;;;4991835;28;20657;-81
2021/10/16 11:16:05;;;;;;;5.22;1.20;;;;;;;;;;4962872;28;20253;-81
2021/10/16 11:18:32;;;;;;;8.57;1.45;;;;;;;;;;4988036;28;20085;-81
2021/10/16 11:21:07;;;;;;;8.05;1.50;;;;;;;;;;4972574;28;20118;-82
2021/10/16 11:23:36;;;;;;;7.93;2.00;;;;;;;;;;4972675;28;20503;-81
2021/10/16 11:26:07;;;;;;;7.03;1.58;;;;;;;;;;4973789;28;20137;-80
2021/10/16 11:28:35;;;;;;;6.50;1.77;;;;;;;;;;4974655;28;20093;-80
2021/10/16 11:31:03;;;;;;;12.50;2.00;;;;;;;;;;4993202;28;20125;-81
2021/10/16 11:33:31;;;;;;;5.93;1.77;;;;;;;;;;4991426;28;20140;-81
2021/10/16 11:35:59;;;;;;;9.02;1.83;;;;;;;;;;4991903;28;20078;-81
2021/10/16 11:38:34;;;;;;;5.78;1.48;;;;;;;;;;4991753;28;20046;-82
2021/10/16 11:41:02;;;;;;;7.93;1.80;;;;;;;;;;4990091;28;20069;-81
2021/10/16 11:43:34;;;;;;;10.52;1.98;;;;;;;;;;4992167;28;20384;-81
2021/10/16 11:46:01;;;;;;;4.55;1.33;;;;;;;;;;4987639;28;20480;-81
2021/10/16 11:48:28;;;;;;;6.93;1.45;;;;;;;;;;4988327;28;20077;-81
2021/10/16 11:50:56;;;;;;;8.77;1.50;;;;;;;;;;4972637;28;20755;-81
2021/10/16 11:53:24;;;;;;;7.80;1.13;;;;;;;;;;4973795;28;20082;-81
2021/10/16 11:56:11;;;;;;;4.97;1.30;;;;;;;;;;4974608;28;20422;-80
2021/10/16 11:58:39;;;;;;;6.70;1.63;;;;;;;;;;4982850;28;20074;-80
2021/10/16 12:01:07;;;;;;;5.90;1.63;;;;;;;;;;4996375;28;20102;-80
2021/10/16 12:03:40;;;;;;;5.32;1.90;;;;;;;;;;4987752;28;20057;-80
2021/10/16 12:06:12;;;;;;;4.70;1.42;;;;;;;;;;4973012;28;20078;-80
2021/10/16 12:08:50;;;;;;;12.75;1.60;;;;;;;;;;4979538;28;20055;-80
2021/10/16 12:11:22;;;;;;;6.43;1.42;;;;;;;;;;5000680;28;20138;-80
2021/10/16 12:13:59;;;;;;;4.90;1.30;;;;;;;;;;4992207;28;20076;-80
2021/10/16 12:16:47;;;;;;;6.30;1.45;;;;;;;;;;4991090;28;20149;-80
2021/10/16 12:19:15;;;;;;;9.70;1.48;;;;;;;;;;4981850;28;20133;-80
2021/10/16 12:21:43;;;;;;;6.97;1.25;;;;;;;;;;4973506;28;20106;-80
2021/10/16 12:24:11;;;;;;;5.50;1.58;;;;;;;;;;4948469;28;20152;-80
2021/10/16 12:26:38;;;;;;;5.43;1.52;;;;;;;;;;4967862;28;20471;-80
2021/10/16 12:29:09;;;;;;;5.90;2.03;;;;;;;;;;4961865;28;20056;-79
2021/10/16 12:31:44;;;;;;;6.43;1.95;;;;;;;;;;4970021;28;20146;-80
2021/10/16 12:34:22;;;;;;;4.95;1.33;;;;;;;;;;4962868;28;20079;-80
2021/10/16 12:37:00;;;;;;;7.95;1.80;;;;;;;;;;4963243;28;20059;-79
2021/10/16 12:39:36;;;;;;;4.65;1.20;;;;;;;;;;4958273;28;20133;-79
2021/10/16 12:42:09;;;;;;;9.60;1.70;;;;;;;;;;4991495;28;20084;-79
2021/10/16 12:44:37;;;;;;;11.05;2.10;;;;;;;;;;4991564;28;20050;-80
2021/10/16 12:47:11;;;;;;;7.88;1.80;;;;;;;;;;4990551;28;20074;-79
2021/10/16 12:49:39;;;;;;;5.63;1.88;;;;;;;;;;4981096;28;20061;-80
2021/10/16 12:52:25;;;;;;;4.03;1.55;;;;;;;;;;4971848;28;20078;-79
2021/10/16 12:54:53;;;;;;;17.98;2.90;;;;;;;;;;4987193;28;20154;-79
2021/10/16 12:57:21;;;;;;;9.30;2.08;;;;;;;;;;4970437;28;20846;-79
2021/10/16 12:59:48;;;;;;;3.75;1.48;;;;;;;;;;4972741;28;20058;-79
2021/10/16 13:02:15;;;;;;;5.38;1.50;;;;;;;;;;4989219;28;20082;-80
2021/10/16 13:04:49;;;;;;;7.97;1.92;;;;;;;;;;4977041;28;20050;-79
2021/10/16 13:07:18;;;;;;;11.70;1.98;;;;;;;;;;4985838;28;20155;-79
2021/10/16 13:09:46;;;;;;;8.63;2.60;;;;;;;;;;4976079;28;20050;-79
2021/10/16 13:12:14;;;;;;;8.23;1.60;;;;;;;;;;4986492;28;20089;-79
2021/10/16 13:14:41;;;;;;;8.82;1.40;;;;;;;;;;4989931;28;20074;-80
2021/10/16 13:17:08;;;;;;;6.75;1.55;;;;;;;;;;4975642;28;20078;-80
2021/10/16 13:19:36;;;;;;;7.43;1.88;;;;;;;;;;4990494;28;20047;-80
2021/10/16 13:22:03;;;;;;;10.40;2.20;;;;;;;;;;4990729;28;20747;-80
2021/10/16 13:24:30;;;;;;;14.02;3.40;;;;;;;;;;4975955;28;20076;-79
2021/10/16 13:26:57;;;;;;;8.10;1.48;;;;;;;;;;4976234;28;20141;-79
2021/10/16 13:29:24;;;;;;;13.15;2.13;;;;;;;;;;4976048;28;20066;-80
2021/10/16 13:31:51;;;;;;;9.20;2.08;;;;;;;;;;5010358;28;20077;-80
2021/10/16 13:34:21;;;;;;;11.75;2.30;;;;;;;;;;4990896;28;20081;-80
2021/10/16 13:36:48;;;;;;;8.23;2.03;;;;;;;;;;4956153;29;20468;-79
2021/10/16 13:39:15;;;;;;;6.20;1.70;;;;;;;;;;4970635;28;20130;-79
2021/10/16 13:41:42;;;;;;;7.53;1.55;;;;;;;;;;4991564;28;20134;-82
2021/10/16 13:44:09;;;;;;;9.13;1.95;;;;;;;;;;4978972;28;20046;-83
2021/10/16 13:46:36;;;;;;;6.53;1.90;;;;;;;;;;4989339;28;20075;-80
2021/10/16 13:49:04;;;;;;;14.98;4.25;;;;;;;;;;4992642;28;20177;-81
2021/10/16 13:51:31;;;;;;;9.95;2.67;;;;;;;;;;4997926;28;20142;-77
2021/10/16 13:54:00;;;;;;;8.73;2.38;;;;;;;;;;4985476;28;20129;-78
2021/10/16 13:56:28;;;;;;;7.65;2.58;;;;;;;;;;4964271;28;20554;-78
2021/10/16 13:58:55;;;;;;;10.27;2.28;;;;;;;;;;4989113;28;20065;-84
2021/10/16 14:01:22;;;;;;;6.85;2.05;;;;;;;;;;4976967;28;20078;-81
2021/10/16 14:03:49;;;;;;;7.07;1.90;;;;;;;;;;4977888;28;20047;-81
2021/10/16 14:06:17;;;;;;;21.55;2.30;;;;;;;;;;4966927;28;20105;-81
2021/10/16 14:08:45;;;;;;;8.55;2.35;;;;;;;;;;4978163;28;20050;-82
2021/10/16 14:11:12;;;;;;;14.18;4.28;;;;;;;;;;4975084;28;20761;-82
2021/10/16 14:13:40;;;;;;;8.57;2.08;;;;;;;;;;4981744;28;20085;-81
2021/10/16 14:16:12;;;;;;;9.15;2.10;;;;;;;;;;4978390;28;20050;-81
2021/10/16 14:18:43;;;;;;;11.60;2.63;;;;;;;;;;4957995;28;20389;-81
2021/10/16 14:21:10;;;;;;;6.45;2.08;;;;;;;;;;4988352;28;20141;-82
2021/10/16 14:23:38;;;;;;;7.70;2.45;;;;;;;;;;4981346;28;20051;-82
2021/10/16 14:26:05;;;;;;;11.63;1.73;;;;;;;;;;4978501;28;20133;-82
2021/10/16 14:28:35;;;;;;;14.05;2.42;;;;;;;;;;4991629;28;20741;-80
2021/10/16 14:31:05;;;;;;;12.45;2.30;;;;;;;;;;4979000;28;20050;-80
2021/10/16 14:33:36;;;;;;;6.82;2.13;;;;;;;;;;4973516;28;20092;-80
2021/10/16 14:36:04;;;;;;;23.50;3.42;;;;;;;;;;4978770;28;20826;-80
2021/10/16 14:38:32;;;;;;;9.45;3.40;;;;;;;;;;4974435;28;20050;-82
2021/10/16 14:40:59;;;;;;;11.25;4.22;;;;;;;;;;4980741;28;20047;-80
2021/10/16 14:43:27;;;;;;;6.28;2.50;;;;;;;;;;4973877;28;20074;-80
2021/10/16 14:45:54;;;;;;;7.30;2.80;;;;;;;;;;4974941;28;20050;-80
2021/10/16 14:48:21;;;;;;;7.18;3.33;;;;;;;;;;4970577;28;20047;-80
2021/10/16 14:50:49;;;;;;;16.92;4.93;;;;;;;;;;4987293;28;20138;-80